Pagosa Lakes, Colorado
Current Conditions -  °F | °C
As of 12:15 AM on Sunday 23 Nov 2014 (Local Time) from KPSO Reporting Station
Light Snow Light Snow  
Wind Chill: 32°   Ceiling: 5000
Heat Index: 32°   Visibility: 7mi
Dew Point: 31°   Wind: 3mph
Humidity: 95%   Direction: 100°E
Pressure: 29.84"   Gusts: NA
Location:  37.1765°N, 106.896°W
Report Text: KPSO 230715Z AUTO 10003KT 7SM -SN SCT022 SCT033 OVC050 00/M01 A2984 RMK AO2 T00001007
Loading
Personal Weather Stations






























Interactive Weather Map New forecast layout! Learn more

10-Day Weather Forecast

Advertisements
Track Severe Weather on mobile